createdAt,value
2022-12-04T00:01:08.967Z,96996.16
2022-12-04T00:03:35.845Z,96995.16
2022-12-04T00:06:22.867Z,97006.69
2022-12-04T00:08:50.431Z,96994.91
2022-12-04T00:11:20.029Z,96995.16
2022-12-04T00:13:46.635Z,96987.97
2022-12-04T00:16:15.949Z,96994.44
2022-12-04T00:18:42.474Z,96986.97
2022-12-04T00:21:11.036Z,96997.94
2022-12-04T00:23:38.876Z,96998.97
2022-12-04T00:26:09.863Z,97007.22
2022-12-04T00:28:37.411Z,97001.78
2022-12-04T00:31:08.586Z,97009.78
2022-12-04T00:33:35.552Z,97009.41
2022-12-04T00:36:05.306Z,97018.88
2022-12-04T00:38:31.904Z,97013.94
2022-12-04T00:41:00.692Z,97016.03
2022-12-04T00:43:28.297Z,97019.34
2022-12-04T00:45:54.807Z,97008.78
2022-12-04T00:48:21.213Z,97008.25
2022-12-04T00:50:47.594Z,97014.41
2022-12-04T00:53:14.065Z,97020.09
2022-12-04T00:55:41.581Z,97014.47
2022-12-04T00:58:08.891Z,97002.09
2022-12-04T01:00:36.633Z,97003.25
2022-12-04T01:03:03.669Z,97018.78
2022-12-04T01:05:30.115Z,96998.72
2022-12-04T01:07:56.884Z,96996.41
2022-12-04T01:10:23.354Z,96994.69
2022-12-04T01:12:50.858Z,96992.78
2022-12-04T01:15:17.743Z,96989.94
2022-12-04T01:17:45.309Z,96982.97
2022-12-04T01:20:13.659Z,96988.09
2022-12-04T01:22:40.119Z,96999.28
2022-12-04T01:25:07.243Z,96997.56
2022-12-04T01:27:33.787Z,96986.19
2022-12-04T01:30:00.169Z,96986.56
2022-12-04T01:32:26.559Z,96977.88
2022-12-04T01:34:52.925Z,96984.34
2022-12-04T01:37:19.306Z,96970.16
2022-12-04T01:39:45.724Z,96969.16
2022-12-04T01:42:14.338Z,96972.22
2022-12-04T01:45:04.331Z,96962.91
2022-12-04T01:47:31.097Z,96975.25
2022-12-04T01:49:59.394Z,96959.41
2022-12-04T01:52:26.510Z,96959.88
2022-12-04T01:54:59.377Z,96968.84
2022-12-04T01:57:28.663Z,96977.59
2022-12-04T01:59:59.141Z,96973.31
2022-12-04T02:02:30.096Z,96958.94
2022-12-04T02:04:56.755Z,96965.03
2022-12-04T02:07:23.210Z,96979.72
2022-12-04T02:09:55.824Z,96987.25
2022-12-04T02:12:32.716Z,97000.63
2022-12-04T02:15:07.953Z,97007.28
2022-12-04T02:17:49.460Z,97011.50
2022-12-04T02:20:20.857Z,97008.41
2022-12-04T02:22:47.137Z,97015.44
2022-12-04T02:25:41.423Z,97012.56
2022-12-04T02:28:28.456Z,97009.81
2022-12-04T02:30:58.597Z,96987.75
2022-12-04T02:33:38.927Z,96987.75
2022-12-04T02:36:11.428Z,96985.06
2022-12-04T02:38:51.712Z,96975.81
2022-12-04T02:41:23.696Z,96986.50
2022-12-04T02:43:54.613Z,96982.91
2022-12-04T02:46:27.698Z,96985.06
2022-12-04T02:48:59.106Z,96980.41
2022-12-04T02:51:30.599Z,96994.63
2022-12-04T02:54:14.326Z,96998.25
2022-12-04T02:56:43.931Z,96981.09
2022-12-04T02:59:17.255Z,96996.72
2022-12-04T03:01:49.752Z,96986.66
2022-12-04T03:04:20.728Z,96998.97
2022-12-04T03:06:55.793Z,96976.13
2022-12-04T03:09:26.324Z,96977.13
2022-12-04T03:12:00.265Z,96976.88
2022-12-04T03:14:33.675Z,96967.13
2022-12-04T03:17:09.765Z,96978.69
2022-12-04T03:19:41.684Z,96982.34
2022-12-04T03:22:13.124Z,96973.47
2022-12-04T03:24:45.522Z,96983.94
2022-12-04T03:27:18.348Z,96978.84
2022-12-04T03:29:55.089Z,96972.22
2022-12-04T03:32:47.896Z,96989.53
2022-12-04T03:35:33.326Z,96978.53
2022-12-04T03:38:16.526Z,96986.66
2022-12-04T03:41:18.638Z,96984.38
2022-12-04T03:44:06.797Z,96960.06
2022-12-04T03:46:50.217Z,96967.06
2022-12-04T03:49:32.936Z,96971.34
2022-12-04T03:52:14.463Z,96961.38
2022-12-04T03:54:48.719Z,96952.75
2022-12-04T03:57:22.735Z,96941.94
2022-12-04T03:59:56.680Z,96959.25
2022-12-04T04:02:26.145Z,96963.88
2022-12-04T04:04:57.840Z,96962.63
2022-12-04T04:07:40.272Z,96955.59
2022-12-04T04:10:13.678Z,96966.91
2022-12-04T04:12:46.391Z,96967.19
2022-12-04T04:15:34.916Z,96959.94
2022-12-04T04:18:20.959Z,96967.91
2022-12-04T04:21:11.332Z,96956.44
2022-12-04T04:24:01.789Z,96967.47
2022-12-04T04:26:32.350Z,96966.66
2022-12-04T04:28:58.699Z,96971.13
2022-12-04T04:31:42.574Z,96963.88
2022-12-04T04:34:21.723Z,96977.44
2022-12-04T04:37:20.761Z,96974.38
2022-12-04T04:40:01.428Z,96971.28
2022-12-04T04:42:33.257Z,96971.13
2022-12-04T04:45:05.836Z,96968.25
2022-12-04T04:47:42.415Z,96961.06
2022-12-04T04:50:11.545Z,96962.69
2022-12-04T04:52:41.126Z,96960.53
2022-12-04T04:55:08.431Z,96978.69
2022-12-04T04:57:36.556Z,96965.81
2022-12-04T05:00:10.802Z,96974.31
2022-12-04T05:02:37.724Z,96968.88
2022-12-04T05:05:06.384Z,96968.41
2022-12-04T05:07:32.806Z,96953.09
2022-12-04T05:09:59.474Z,96960.75
2022-12-04T05:12:26.013Z,96950.28
2022-12-04T05:14:52.369Z,96962.69
2022-12-04T05:17:18.840Z,96952.63
2022-12-04T05:19:54.528Z,96958.69
2022-12-04T05:22:27.820Z,96943.59
2022-12-04T05:24:54.710Z,96956.69
2022-12-04T05:27:22.367Z,96964.03
2022-12-04T05:29:48.991Z,96958.16
2022-12-04T05:32:15.743Z,96966.91
2022-12-04T05:34:42.621Z,96943.09
2022-12-04T05:37:09.042Z,96963.03
2022-12-04T05:39:35.619Z,96953.75
2022-12-04T05:42:01.981Z,96965.03
2022-12-04T05:44:28.335Z,96958.94
2022-12-04T05:46:54.786Z,96968.97
2022-12-04T05:49:21.187Z,96966.66
2022-12-04T05:51:49.404Z,96952.88
2022-12-04T05:54:15.856Z,96980.00
2022-12-04T05:56:42.190Z,96971.53
2022-12-04T05:59:08.579Z,96973.91
2022-12-04T06:01:34.998Z,96986.34
2022-12-04T06:04:01.633Z,96973.53
2022-12-04T06:06:28.093Z,96974.56
2022-12-04T06:08:56.849Z,96970.19
2022-12-04T06:11:28.190Z,96977.44
2022-12-04T06:13:56.503Z,96977.13
2022-12-04T06:16:26.507Z,96975.63
2022-12-04T06:18:55.482Z,96984.63
2022-12-04T06:21:23.494Z,96976.13
2022-12-04T06:23:51.009Z,96975.44
2022-12-04T06:26:18.378Z,96981.34
2022-12-04T06:28:44.811Z,96979.78
2022-12-04T06:31:13.670Z,96989.47
2022-12-04T06:33:40.556Z,96991.06
2022-12-04T06:36:11.289Z,96984.06
2022-12-04T06:38:38.141Z,96982.22
2022-12-04T06:41:09.063Z,96987.13
2022-12-04T06:43:35.456Z,96989.69
2022-12-04T06:46:07.183Z,96987.44
2022-12-04T06:48:34.370Z,96993.38
2022-12-04T06:51:02.644Z,96989.28
2022-12-04T06:53:30.442Z,96973.19
2022-12-04T06:56:01.120Z,96986.00
2022-12-04T06:58:28.619Z,96981.19
2022-12-04T07:00:56.376Z,96978.66
2022-12-04T07:03:24.199Z,96976.03
2022-12-04T07:05:51.151Z,96978.13
2022-12-04T07:08:18.590Z,96979.66
2022-12-04T07:10:45.121Z,96975.31
2022-12-04T07:13:11.593Z,96977.88
2022-12-04T07:15:38.246Z,96964.22
2022-12-04T07:18:04.816Z,96970.63
2022-12-04T07:20:31.549Z,96974.19
2022-12-04T07:23:01.387Z,96976.56
2022-12-04T07:25:31.235Z,96969.69
2022-12-04T07:27:57.590Z,96977.59
2022-12-04T07:30:24.214Z,96963.22
2022-12-04T07:32:50.618Z,96973.59
2022-12-04T07:35:17.071Z,96974.19
2022-12-04T07:37:43.473Z,96979.84
2022-12-04T07:40:10.331Z,96968.31
2022-12-04T07:42:36.675Z,96971.94
2022-12-04T07:45:03.274Z,96961.72
2022-12-04T07:47:29.617Z,96957.38
2022-12-04T07:49:56.137Z,96961.66
2022-12-04T07:52:22.634Z,96967.13
2022-12-04T07:54:49.357Z,96966.13
2022-12-04T07:57:15.706Z,96972.47
2022-12-04T07:59:42.067Z,96971.75
2022-12-04T08:02:08.722Z,96978.06
2022-12-04T08:04:36.639Z,96975.25
2022-12-04T08:07:03.027Z,96981.44
2022-12-04T08:09:29.379Z,96984.34
2022-12-04T08:11:55.715Z,96979.47
2022-12-04T08:14:22.180Z,96977.28
2022-12-04T08:16:52.655Z,96981.09
2022-12-04T08:19:19.475Z,96992.91
2022-12-04T08:21:45.881Z,96994.84
2022-12-04T08:24:12.378Z,96987.59
2022-12-04T08:26:38.747Z,96984.13
2022-12-04T08:29:06.562Z,97000.75
2022-12-04T08:31:35.625Z,96987.59
2022-12-04T08:34:04.511Z,97002.28
2022-12-04T08:36:31.563Z,96999.91
2022-12-04T08:38:57.991Z,97000.69
2022-12-04T08:41:26.156Z,96989.69
2022-12-04T08:43:54.652Z,96999.28
2022-12-04T08:46:21.772Z,96993.59
2022-12-04T08:48:48.619Z,96983.38
2022-12-04T08:51:18.058Z,96987.81
2022-12-04T08:53:44.883Z,96973.38
2022-12-04T08:56:11.388Z,96975.66
2022-12-04T08:58:37.979Z,96966.94
2022-12-04T09:01:10.128Z,96984.94
2022-12-04T09:03:37.037Z,96979.53
2022-12-04T09:06:05.174Z,96976.50
2022-12-04T09:08:32.751Z,96967.53
2022-12-04T09:11:07.920Z,96972.69
2022-12-04T09:13:34.601Z,96979.53
2022-12-04T09:16:05.008Z,96961.59
2022-12-04T09:18:31.548Z,96981.63
2022-12-04T09:20:59.499Z,96970.81
2022-12-04T09:23:26.746Z,96982.97
2022-12-04T09:25:53.724Z,96975.97
2022-12-04T09:28:20.800Z,96972.91
2022-12-04T09:31:03.736Z,96980.78
2022-12-04T09:33:33.255Z,96967.84
2022-12-04T09:36:01.117Z,96969.88
2022-12-04T09:38:28.629Z,96986.84
2022-12-04T09:41:05.403Z,96993.91
2022-12-04T09:43:55.795Z,96983.63
2022-12-04T09:46:32.437Z,96969.69
2022-12-04T09:49:04.831Z,96983.75
2022-12-04T09:51:33.758Z,96978.66
2022-12-04T09:54:07.832Z,96966.13
2022-12-04T09:56:34.661Z,96954.88
2022-12-04T09:59:11.166Z,96959.56
2022-12-04T10:01:48.132Z,96964.81
2022-12-04T10:04:15.342Z,96955.75
2022-12-04T10:06:56.626Z,96957.06
2022-12-04T10:09:42.894Z,96953.75
2022-12-04T10:12:23.419Z,96968.16
2022-12-04T10:15:01.069Z,96965.59
2022-12-04T10:17:41.829Z,96970.19
2022-12-04T10:20:25.948Z,96970.00
2022-12-04T10:23:18.569Z,96960.28
2022-12-04T10:25:44.997Z,96963.00
2022-12-04T10:28:17.130Z,96967.88
2022-12-04T10:30:45.558Z,96946.66
2022-12-04T10:33:26.332Z,96947.91
2022-12-04T10:35:54.177Z,96954.09
2022-12-04T10:38:33.196Z,96944.16
2022-12-04T10:41:14.839Z,96946.41
2022-12-04T10:43:41.597Z,96950.28
2022-12-04T10:46:14.486Z,96934.41
2022-12-04T10:48:43.068Z,96947.78
2022-12-04T10:51:17.715Z,96941.22
2022-12-04T10:53:45.409Z,96931.94
2022-12-04T10:56:29.982Z,96928.66
2022-12-04T10:59:01.921Z,96927.09
2022-12-04T11:01:35.402Z,96924.59
2022-12-04T11:04:03.319Z,96927.53
2022-12-04T11:06:30.716Z,96920.53
2022-12-04T11:08:58.872Z,96922.28
2022-12-04T11:11:34.673Z,96923.13
2022-12-04T11:14:16.686Z,96919.16
2022-12-04T11:16:46.334Z,96909.25
2022-12-04T11:19:24.918Z,96906.25
2022-12-04T11:21:54.560Z,96900.44
2022-12-04T11:24:43.077Z,96895.28
2022-12-04T11:27:36.568Z,96899.66
2022-12-04T11:30:10.627Z,96899.59
2022-12-04T11:32:38.503Z,96896.50
2022-12-04T11:35:17.330Z,96895.25
2022-12-04T11:37:53.898Z,96899.91
2022-12-04T11:40:21.226Z,96889.91
2022-12-04T11:43:12.264Z,96898.13
2022-12-04T11:45:39.325Z,96889.19
2022-12-04T11:48:17.324Z,96884.34
2022-12-04T11:51:11.441Z,96894.84
2022-12-04T11:54:06.835Z,96891.81
2022-12-04T11:56:38.314Z,96899.25
2022-12-04T11:59:36.478Z,96904.63
2022-12-04T12:02:20.555Z,96886.16
2022-12-04T12:05:10.854Z,96888.72
2022-12-04T12:07:56.394Z,96899.00
2022-12-04T12:10:40.084Z,96881.03
2022-12-04T12:13:18.745Z,96889.53
2022-12-04T12:15:57.195Z,96873.88
2022-12-04T12:19:08.621Z,96889.56
2022-12-04T12:21:52.559Z,96890.03
2022-12-04T12:24:48.330Z,96897.22
2022-12-04T12:27:57.709Z,96899.28
2022-12-04T12:30:26.927Z,96892.84
2022-12-04T12:32:59.208Z,96899.00
2022-12-04T12:35:35.863Z,96902.38
2022-12-04T12:38:10.412Z,96896.72
2022-12-04T12:40:45.048Z,96902.66
2022-12-04T12:43:22.764Z,96888.50
2022-12-04T12:46:23.653Z,96898.81
2022-12-04T12:49:14.866Z,96895.44
2022-12-04T12:51:51.601Z,96897.50
2022-12-04T12:54:39.550Z,96890.63
2022-12-04T12:57:13.507Z,96888.06
2022-12-04T12:59:46.265Z,96890.13
2022-12-04T13:02:29.243Z,96881.66
2022-12-04T13:05:01.347Z,96886.00
2022-12-04T13:07:47.212Z,96887.31
2022-12-04T13:10:16.572Z,96885.56
2022-12-04T13:12:54.607Z,96879.09
2022-12-04T13:15:26.948Z,96872.66
2022-12-04T13:17:56.230Z,96862.69
2022-12-04T13:20:31.502Z,96882.91
2022-12-04T13:23:28.196Z,96884.72
2022-12-04T13:26:03.893Z,96874.69
2022-12-04T13:28:43.255Z,96870.06
2022-12-04T13:31:22.539Z,96877.06
2022-12-04T13:34:22.226Z,96878.88
2022-12-04T13:37:12.913Z,96871.50
2022-12-04T13:40:01.008Z,96872.47
2022-12-04T13:42:28.943Z,96859.34
2022-12-04T13:45:02.932Z,96860.16
2022-12-04T13:47:32.089Z,96855.00
2022-12-04T13:50:19.560Z,96857.06
2022-12-04T13:52:49.007Z,96848.69
2022-12-04T13:55:23.507Z,96839.66
2022-12-04T13:58:01.852Z,96843.81
2022-12-04T14:00:32.728Z,96839.22
2022-12-04T14:03:06.009Z,96830.75
2022-12-04T14:05:43.002Z,96834.16
2022-12-04T14:08:18.457Z,96831.06
2022-12-04T14:10:56.502Z,96823.41
2022-12-04T14:13:27.671Z,96829.31
2022-12-04T14:16:17.153Z,96823.13
2022-12-04T14:18:51.435Z,96831.91
2022-12-04T14:21:17.998Z,96836.72
2022-12-04T14:23:44.573Z,96836.69
2022-12-04T14:26:20.278Z,96844.38
2022-12-04T14:28:46.713Z,96836.16
2022-12-04T14:31:29.248Z,96830.78
2022-12-04T14:33:59.841Z,96848.50
2022-12-04T14:36:34.929Z,96851.00
2022-12-04T14:39:13.232Z,96840.53
2022-12-04T14:41:39.785Z,96841.25
2022-12-04T14:44:06.888Z,96839.97
2022-12-04T14:46:51.930Z,96834.59
2022-12-04T14:49:35.709Z,96844.88
2022-12-04T14:52:23.942Z,96843.88
2022-12-04T14:55:12.649Z,96854.09
2022-12-04T14:57:49.476Z,96841.47
2022-12-04T15:00:18.923Z,96850.72
2022-12-04T15:02:47.863Z,96852.03
2022-12-04T15:05:26.020Z,96850.44
2022-12-04T15:07:57.483Z,96850.25
2022-12-04T15:10:46.945Z,96849.66
2022-12-04T15:13:24.460Z,96851.97
2022-12-04T15:15:51.345Z,96863.50
2022-12-04T15:18:17.778Z,96853.97
2022-12-04T15:20:58.314Z,96856.31
2022-12-04T15:23:30.563Z,96876.31
2022-12-04T15:26:00.406Z,96862.75
2022-12-04T15:28:48.251Z,96875.34
2022-12-04T15:31:20.640Z,96868.88
2022-12-04T15:33:50.629Z,96879.13
2022-12-04T15:36:27.630Z,96864.78
2022-12-04T15:38:54.362Z,96867.53
2022-12-04T15:41:35.994Z,96882.94
2022-12-04T15:44:21.043Z,96873.72
2022-12-04T15:46:47.708Z,96866.00
2022-12-04T15:49:25.079Z,96872.94
2022-12-04T15:51:51.752Z,96876.78
2022-12-04T15:54:26.100Z,96862.41
2022-12-04T15:57:05.587Z,96867.03
2022-12-04T15:59:34.652Z,96852.94
2022-12-04T16:02:21.876Z,96864.25
2022-12-04T16:04:48.300Z,96856.50
2022-12-04T16:07:27.157Z,96866.03
2022-12-04T16:10:04.778Z,96857.31
2022-12-04T16:12:32.792Z,96870.38
2022-12-04T16:14:59.183Z,96867.31
2022-12-04T16:17:31.354Z,96873.69
2022-12-04T16:19:59.585Z,96873.66
2022-12-04T16:22:26.895Z,96877.03
2022-12-04T16:24:54.226Z,96873.09
2022-12-04T16:27:23.223Z,96879.53
2022-12-04T16:29:51.200Z,96887.75
2022-12-04T16:32:21.135Z,96880.56
2022-12-04T16:34:48.272Z,96889.75
2022-12-04T16:37:17.251Z,96887.47
2022-12-04T16:39:44.052Z,96880.31
2022-12-04T16:42:30.681Z,96891.88
2022-12-04T16:44:57.961Z,96890.81
2022-12-04T16:47:24.469Z,96888.47
2022-12-04T16:49:52.025Z,96900.06
2022-12-04T16:52:19.290Z,96896.47
2022-12-04T16:54:46.148Z,96886.44
2022-12-04T16:57:12.693Z,96891.56
2022-12-04T16:59:39.081Z,96886.69
2022-12-04T17:02:15.368Z,96879.84
2022-12-04T17:04:41.869Z,96893.13
2022-12-04T17:07:08.292Z,96889.75
2022-12-04T17:09:34.668Z,96881.09
2022-12-04T17:12:01.011Z,96880.91
2022-12-04T17:14:27.378Z,96882.38
2022-12-04T17:16:54.953Z,96878.88
2022-12-04T17:19:21.458Z,96871.63
2022-12-04T17:21:47.823Z,96871.84
2022-12-04T17:24:14.188Z,96876.50
2022-12-04T17:26:40.649Z,96879.09
2022-12-04T17:29:07.040Z,96884.75
2022-12-04T17:31:33.469Z,96873.47
2022-12-04T17:34:00.010Z,96866.28
2022-12-04T17:36:27.569Z,96883.47
2022-12-04T17:38:56.193Z,96870.59
2022-12-04T17:41:23.332Z,96873.69
2022-12-04T17:43:50.484Z,96877.81
2022-12-04T17:46:20.482Z,96878.06
2022-12-04T17:48:47.699Z,96861.41
2022-12-04T17:51:16.991Z,96864.50
2022-12-04T17:53:43.558Z,96873.97
2022-12-04T17:56:17.229Z,96872.19
2022-12-04T17:58:44.538Z,96856.53
2022-12-04T18:01:16.981Z,96865.81
2022-12-04T18:03:43.851Z,96862.25
2022-12-04T18:06:30.008Z,96861.72
2022-12-04T18:08:56.510Z,96845.31
2022-12-04T18:11:29.280Z,96837.91
2022-12-04T18:14:10.164Z,96850.31
2022-12-04T18:16:40.797Z,96839.56
2022-12-04T18:19:07.552Z,96839.25
2022-12-04T18:21:34.397Z,96839.25
2022-12-04T18:24:03.291Z,96846.69
2022-12-04T18:26:36.253Z,96840.53
2022-12-04T18:29:03.459Z,96841.03
2022-12-04T18:31:29.855Z,96836.91
2022-12-04T18:33:56.324Z,96840.28
2022-12-04T18:36:25.317Z,96838.50
2022-12-04T18:38:57.674Z,96825.16
2022-12-04T18:41:24.967Z,96836.13
2022-12-04T18:43:52.345Z,96841.03
2022-12-04T18:46:19.402Z,96827.44
2022-12-04T18:48:47.194Z,96826.94
2022-12-04T18:51:14.894Z,96833.84
2022-12-04T18:53:41.296Z,96846.19
2022-12-04T18:56:07.733Z,96851.25
2022-12-04T18:58:34.114Z,96867.09
2022-12-04T19:01:11.904Z,96867.91
2022-12-04T19:03:38.296Z,96867.66
2022-12-04T19:06:04.847Z,96860.19
2022-12-04T19:08:34.321Z,96871.72
2022-12-04T19:11:08.668Z,96861.19
2022-12-04T19:13:35.575Z,96859.16
2022-12-04T19:16:02.783Z,96866.31
2022-12-04T19:18:29.920Z,96865.78
2022-12-04T19:20:57.213Z,96863.22
2022-12-04T19:23:23.893Z,96871.97
2022-12-04T19:25:57.853Z,96876.38
2022-12-04T19:28:25.446Z,96884.31
2022-12-04T19:30:52.077Z,96889.13
2022-12-04T19:33:18.495Z,96894.25
2022-12-04T19:35:59.540Z,96894.53
2022-12-04T19:38:26.284Z,96872.47
2022-12-04T19:41:16.423Z,96897.34
2022-12-04T19:43:45.341Z,96898.13
2022-12-04T19:46:14.683Z,96889.13
2022-12-04T19:48:41.860Z,96898.09
2022-12-04T19:51:11.322Z,96897.84
2022-12-04T19:53:41.110Z,96881.69
2022-12-04T19:56:13.654Z,96880.69
2022-12-04T19:58:40.619Z,96885.59
2022-12-04T20:01:10.511Z,96886.09
2022-12-04T20:03:37.209Z,96891.22
2022-12-04T20:06:05.301Z,96880.44
2022-12-04T20:08:31.827Z,96884.00
2022-12-04T20:11:06.223Z,96890.22
2022-12-04T20:13:36.031Z,96881.00
2022-12-04T20:16:03.942Z,96881.47
2022-12-04T20:18:30.515Z,96881.50
2022-12-04T20:20:58.602Z,96891.50
2022-12-04T20:23:25.441Z,96882.25
2022-12-04T20:25:51.931Z,96896.09
2022-12-04T20:28:18.485Z,96898.16
2022-12-04T20:30:44.906Z,96892.00
2022-12-04T20:33:11.382Z,96895.56
2022-12-04T20:35:38.724Z,96888.91
2022-12-04T20:38:05.904Z,96889.41
2022-12-04T20:40:34.239Z,96904.00
2022-12-04T20:43:00.638Z,96901.97
2022-12-04T20:45:27.047Z,96914.75
2022-12-04T20:47:54.782Z,96919.13
2022-12-04T20:50:21.163Z,96922.97
2022-12-04T20:52:47.582Z,96925.28
2022-12-04T20:55:13.960Z,96913.25
2022-12-04T20:57:40.387Z,96925.53
2022-12-04T21:00:07.615Z,96913.47
2022-12-04T21:02:33.990Z,96915.28
2022-12-04T21:05:00.438Z,96907.53
2022-12-04T21:07:26.783Z,96905.75
2022-12-04T21:09:53.140Z,96923.22
2022-12-04T21:12:43.028Z,96928.63
2022-12-04T21:15:28.638Z,96912.22
2022-12-04T21:17:54.989Z,96920.13
2022-12-04T21:20:21.342Z,96901.38
2022-12-04T21:22:47.688Z,96907.06
2022-12-04T21:25:14.241Z,96916.03
2022-12-04T21:27:40.583Z,96932.22
2022-12-04T21:30:07.676Z,96920.09
2022-12-04T21:32:34.044Z,96909.56
2022-12-04T21:35:01.544Z,96934.94
2022-12-04T21:37:27.975Z,96930.22
2022-12-04T21:39:54.593Z,96937.94
2022-12-04T21:42:30.168Z,96941.28
2022-12-04T21:44:57.679Z,96938.16
2022-12-04T21:47:24.152Z,96933.53
2022-12-04T21:49:50.523Z,96927.56
2022-12-04T21:52:17.439Z,96936.00
2022-12-04T21:54:43.831Z,96931.06
2022-12-04T21:57:10.245Z,96946.53
2022-12-04T21:59:36.688Z,96940.63
2022-12-04T22:02:03.339Z,96944.19
2022-12-04T22:04:29.790Z,96933.41
2022-12-04T22:06:56.146Z,96941.41
2022-12-04T22:09:22.658Z,96942.16
2022-12-04T22:11:49.000Z,96940.38
2022-12-04T22:14:15.375Z,96932.50
2022-12-04T22:16:43.044Z,96938.66
2022-12-04T22:19:11.358Z,96937.91
2022-12-04T22:21:38.129Z,96922.78
2022-12-04T22:24:04.937Z,96939.16
2022-12-04T22:26:32.499Z,96942.97
2022-12-04T22:28:59.015Z,96944.53
2022-12-04T22:31:27.455Z,96947.88
2022-12-04T22:33:55.834Z,96944.19
2022-12-04T22:36:25.770Z,96961.66
2022-12-04T22:39:08.739Z,96941.41
2022-12-04T22:41:36.148Z,96941.41
2022-12-04T22:44:02.586Z,96948.84
2022-12-04T22:46:29.150Z,96945.31
2022-12-04T22:48:55.643Z,96953.22
2022-12-04T22:51:22.730Z,96951.69
2022-12-04T22:53:54.959Z,96944.19
2022-12-04T22:56:23.738Z,96953.16
2022-12-04T22:58:50.983Z,96953.22
2022-12-04T23:01:18.677Z,96952.16
2022-12-04T23:03:46.052Z,96950.38
2022-12-04T23:06:13.599Z,96937.75
2022-12-04T23:08:41.389Z,96939.56
2022-12-04T23:11:19.367Z,96941.13
2022-12-04T23:13:56.735Z,96954.19
2022-12-04T23:16:24.529Z,96949.31
2022-12-04T23:18:51.000Z,96947.84
2022-12-04T23:21:18.806Z,96956.81
2022-12-04T23:23:47.442Z,96939.88
2022-12-04T23:26:16.599Z,96933.94
2022-12-04T23:28:43.248Z,96949.09
2022-12-04T23:31:10.980Z,96950.09
2022-12-04T23:33:38.601Z,96940.03
2022-12-04T23:36:06.842Z,96945.16
2022-12-04T23:38:35.819Z,96956.22
2022-12-04T23:41:12.093Z,96953.09
2022-12-04T23:43:39.378Z,96961.31
2022-12-04T23:46:10.978Z,96949.75
2022-12-04T23:48:38.826Z,96958.00
2022-12-04T23:51:05.729Z,96949.75
2022-12-04T23:53:32.119Z,96946.66
2022-12-04T23:56:02.384Z,96944.34
2022-12-04T23:58:28.738Z,96952.56
